createdAt,value
2018-05-13T00:01:18.629Z,3
2018-05-13T00:04:18.514Z,3.4
2018-05-13T00:07:18.572Z,3.1
2018-05-13T00:10:18.633Z,2.9
2018-05-13T00:13:18.519Z,3
2018-05-13T00:16:18.540Z,3
2018-05-13T00:19:18.678Z,3.1
2018-05-13T00:22:18.493Z,3
2018-05-13T00:25:18.585Z,3
2018-05-13T00:28:18.627Z,3.2
2018-05-13T00:31:18.557Z,3.2
2018-05-13T00:34:18.653Z,3.1
2018-05-13T00:37:18.750Z,3.1
2018-05-13T00:40:18.594Z,3
2018-05-13T00:43:18.635Z,3.2
2018-05-13T00:46:18.631Z,3
2018-05-13T00:49:18.548Z,2.9
2018-05-13T00:52:18.713Z,3.1
2018-05-13T00:55:18.487Z,3.1
2018-05-13T00:58:18.694Z,3.1
2018-05-13T01:01:18.613Z,3.1
2018-05-13T01:04:18.554Z,3.1
2018-05-13T01:07:18.545Z,3.1
2018-05-13T01:10:18.729Z,3
2018-05-13T01:13:18.842Z,3.1
2018-05-13T01:16:18.499Z,3.1
2018-05-13T01:19:18.841Z,2.9
2018-05-13T01:22:18.646Z,3
2018-05-13T01:25:18.651Z,3
2018-05-13T01:28:18.593Z,3
2018-05-13T01:31:18.507Z,3.1
2018-05-13T01:34:18.507Z,3
2018-05-13T01:37:18.736Z,2.9
2018-05-13T01:40:18.620Z,3
2018-05-13T01:43:18.665Z,2.9
2018-05-13T01:46:18.685Z,2.8
2018-05-13T01:49:18.809Z,3
2018-05-13T01:52:18.627Z,3
2018-05-13T01:55:18.534Z,3.1
2018-05-13T01:58:18.522Z,2.9
2018-05-13T02:01:18.538Z,2.8
2018-05-13T02:04:18.770Z,2.8
2018-05-13T02:07:18.665Z,2.9
2018-05-13T02:10:18.644Z,2.9
2018-05-13T02:13:18.500Z,2.8
2018-05-13T02:16:18.498Z,2.8
2018-05-13T02:19:18.604Z,2.9
2018-05-13T02:22:18.585Z,2.9
2018-05-13T02:25:18.773Z,2.8
2018-05-13T02:28:18.610Z,2.8
2018-05-13T02:31:18.508Z,2.9
2018-05-13T02:34:18.505Z,2.9
2018-05-13T02:37:18.629Z,3
2018-05-13T02:40:18.491Z,2.9
2018-05-13T02:43:18.598Z,2.8
2018-05-13T02:46:18.505Z,2.9
2018-05-13T02:49:18.794Z,2.9
2018-05-13T02:52:18.565Z,2.9
2018-05-13T02:55:18.610Z,2.8
2018-05-13T02:58:18.712Z,2.8
2018-05-13T03:01:18.675Z,2.8
2018-05-13T03:04:18.427Z,2.7
2018-05-13T03:07:18.675Z,2.7
2018-05-13T03:10:18.874Z,2.7
2018-05-13T03:13:18.647Z,2.8
2018-05-13T03:16:18.688Z,2.8
2018-05-13T03:19:18.888Z,2.9
2018-05-13T03:22:18.648Z,2.9
2018-05-13T03:25:18.589Z,3
2018-05-13T03:28:18.683Z,2.9
2018-05-13T03:31:18.582Z,2.8
2018-05-13T03:34:18.654Z,2.8
2018-05-13T03:37:18.631Z,2.7
2018-05-13T03:40:18.644Z,2.8
2018-05-13T03:43:18.435Z,2.8
2018-05-13T03:46:18.655Z,2.7
2018-05-13T03:49:18.518Z,2.8
2018-05-13T03:52:18.754Z,2.8
2018-05-13T03:55:18.611Z,2.7
2018-05-13T03:58:18.587Z,2.7
2018-05-13T04:01:18.501Z,2.8
2018-05-13T04:04:18.869Z,3
2018-05-13T04:07:19.414Z,3
2018-05-13T04:10:18.601Z,3
2018-05-13T04:13:18.478Z,2.8
2018-05-13T04:16:18.785Z,2.8
2018-05-13T04:19:18.482Z,2.7
2018-05-13T04:22:18.424Z,2.7
2018-05-13T04:25:19.027Z,2.6
2018-05-13T04:28:18.542Z,2.7
2018-05-13T04:31:18.594Z,2.7
2018-05-13T04:34:18.756Z,2.7
2018-05-13T04:37:18.438Z,2.7
2018-05-13T04:40:18.560Z,2.7
2018-05-13T04:43:18.562Z,2.6
2018-05-13T04:46:18.352Z,2.7
2018-05-13T04:49:18.828Z,2.7
2018-05-13T04:52:18.623Z,2.7
2018-05-13T04:55:18.438Z,2.7
2018-05-13T04:58:18.581Z,2.7
2018-05-13T05:01:18.609Z,2.7
2018-05-13T05:04:18.357Z,2.7
2018-05-13T05:07:18.641Z,2.7
2018-05-13T05:10:18.567Z,2.6
2018-05-13T05:13:28.489Z,2.6
2018-05-13T05:16:18.417Z,2.6
2018-05-13T05:19:18.623Z,2.7
2018-05-13T05:22:18.592Z,2.7
2018-05-13T05:25:18.579Z,2.7
2018-05-13T05:28:18.531Z,2.7
2018-05-13T05:31:18.731Z,3
2018-05-13T05:34:18.496Z,2.8
2018-05-13T05:37:18.457Z,2.7
2018-05-13T05:40:18.444Z,2.7
2018-05-13T05:43:18.536Z,2.6
2018-05-13T05:46:18.590Z,2.6
2018-05-13T05:49:18.508Z,2.5
2018-05-13T05:52:18.652Z,2.5
2018-05-13T05:55:18.527Z,2.4
2018-05-13T05:58:18.501Z,2.5
2018-05-13T06:01:18.555Z,2.5
2018-05-13T06:04:18.326Z,2.5
2018-05-13T06:07:18.598Z,2.6
2018-05-13T06:10:18.448Z,2.6
2018-05-13T06:13:18.763Z,2.7
2018-05-13T06:16:18.427Z,2.6
2018-05-13T06:19:18.478Z,2.5
2018-05-13T06:22:18.524Z,2.5
2018-05-13T06:25:19.466Z,2.6
2018-05-13T06:28:18.628Z,2.5
2018-05-13T06:31:18.563Z,2.5
2018-05-13T06:34:18.747Z,2.5
2018-05-13T06:37:18.686Z,2.4
2018-05-13T06:40:19.246Z,2.4
2018-05-13T06:43:18.445Z,2.4
2018-05-13T06:46:18.445Z,2.4
2018-05-13T06:49:18.539Z,2.4
2018-05-13T06:52:18.582Z,2.5
2018-05-13T06:55:18.716Z,2.5
2018-05-13T06:58:18.600Z,2.5
2018-05-13T07:01:18.431Z,2.4
2018-05-13T07:04:18.614Z,2.4
2018-05-13T07:07:18.551Z,2.4
2018-05-13T07:10:19.361Z,2.4
2018-05-13T07:13:18.456Z,2.4
2018-05-13T07:16:18.629Z,2.5
2018-05-13T07:19:18.564Z,2.5
2018-05-13T07:22:18.487Z,2.4
2018-05-13T07:25:18.494Z,2.4
2018-05-13T07:28:18.462Z,2.6
2018-05-13T07:31:18.717Z,2.5
2018-05-13T07:34:18.553Z,2.5
2018-05-13T07:37:18.585Z,2.4
2018-05-13T07:40:18.611Z,2.4
2018-05-13T07:43:19.219Z,2.3
2018-05-13T07:46:18.668Z,2.3
2018-05-13T07:49:18.523Z,2.4
2018-05-13T07:52:18.613Z,2.4
2018-05-13T07:55:18.412Z,2.8
2018-05-13T07:58:18.401Z,2.7
2018-05-13T08:01:18.738Z,2.5
2018-05-13T08:04:18.449Z,3.6
2018-05-13T08:07:18.512Z,3.6
2018-05-13T08:10:18.617Z,3
2018-05-13T08:13:18.405Z,2.7
2018-05-13T08:16:18.428Z,3.1
2018-05-13T08:19:18.345Z,3.2
2018-05-13T08:22:18.546Z,3
2018-05-13T08:25:18.445Z,2.7
2018-05-13T08:28:18.509Z,2.6
2018-05-13T08:31:18.564Z,2.7
2018-05-13T08:34:18.657Z,2.6
2018-05-13T08:37:18.541Z,2.6
2018-05-13T08:40:18.498Z,3
2018-05-13T08:43:18.390Z,2.9
2018-05-13T08:46:18.459Z,2.6
2018-05-13T08:49:18.382Z,2.4
2018-05-13T08:52:18.439Z,2.4
2018-05-13T08:55:18.614Z,2.4
2018-05-13T08:58:18.601Z,2.8
2018-05-13T09:01:18.449Z,3.1
2018-05-13T09:04:18.524Z,2.7
2018-05-13T09:07:18.693Z,4.2
2018-05-13T09:10:18.431Z,3.9
2018-05-13T09:13:18.613Z,3.6
2018-05-13T09:16:18.476Z,3
2018-05-13T09:19:18.323Z,3.2
2018-05-13T09:22:18.363Z,4.5
2018-05-13T09:25:18.478Z,6.9
2018-05-13T09:28:18.470Z,6.3
2018-05-13T09:31:18.427Z,6.5
2018-05-13T09:34:18.515Z,4.8
2018-05-13T09:37:18.500Z,4.9
2018-05-13T09:40:18.533Z,4.8
2018-05-13T09:43:18.686Z,4.4
2018-05-13T09:46:18.757Z,4.6
2018-05-13T09:49:18.703Z,4.8
2018-05-13T09:52:18.670Z,4.2
2018-05-13T09:55:18.896Z,3.7
2018-05-13T09:58:18.659Z,3.8
2018-05-13T10:01:18.706Z,4.7
2018-05-13T10:04:18.764Z,6.4
2018-05-13T10:07:18.351Z,5.3
2018-05-13T10:10:18.495Z,4.5
2018-05-13T10:13:18.871Z,3.8
2018-05-13T10:16:18.277Z,3.8
2018-05-13T10:19:18.535Z,3.9
2018-05-13T10:22:18.605Z,4
2018-05-13T10:25:18.435Z,3.9
2018-05-13T10:28:18.669Z,3.3
2018-05-13T10:31:18.511Z,3.1
2018-05-13T10:34:18.342Z,3.5
2018-05-13T10:37:18.510Z,4.1
2018-05-13T10:40:18.567Z,4.7
2018-05-13T10:43:18.339Z,4.8
2018-05-13T10:46:18.389Z,4.7
2018-05-13T10:49:18.292Z,4.6
2018-05-13T10:52:18.947Z,4.3
2018-05-13T10:55:18.397Z,4.4
2018-05-13T10:58:18.347Z,3.8
2018-05-13T11:01:18.440Z,4.3
2018-05-13T11:04:18.384Z,4.2
2018-05-13T11:07:18.426Z,4.6
2018-05-13T11:10:19.436Z,4.2
2018-05-13T11:13:18.453Z,4.4
2018-05-13T11:16:18.578Z,5.8
2018-05-13T11:19:18.477Z,6.4
2018-05-13T11:22:18.380Z,6.5
2018-05-13T11:25:18.410Z,4.9
2018-05-13T11:28:18.477Z,4.9
2018-05-13T11:31:18.467Z,5.5
2018-05-13T11:34:18.334Z,5.2
2018-05-13T11:37:18.510Z,4.6
2018-05-13T11:40:18.413Z,5.3
2018-05-13T11:43:18.399Z,5.3
2018-05-13T11:46:18.382Z,4.7
2018-05-13T11:49:18.544Z,4.5
2018-05-13T11:52:18.582Z,5.4
2018-05-13T11:55:18.343Z,6.1
2018-05-13T11:58:18.530Z,5.7
2018-05-13T12:01:18.395Z,5.9
2018-05-13T12:04:18.348Z,5.1
2018-05-13T12:07:18.317Z,5.1
2018-05-13T12:10:18.787Z,4.2
2018-05-13T12:13:18.384Z,3.8
2018-05-13T12:16:18.529Z,7.1
2018-05-13T12:19:18.325Z,8.5
2018-05-13T12:22:18.395Z,7.8
2018-05-13T12:25:18.304Z,7.1
2018-05-13T12:28:18.473Z,6.5
2018-05-13T12:31:18.454Z,5.5
2018-05-13T12:34:18.219Z,5.7
2018-05-13T12:37:18.416Z,5.2
2018-05-13T12:40:18.554Z,4.4
2018-05-13T12:43:18.229Z,4.7
2018-05-13T12:46:18.454Z,4.8
2018-05-13T12:49:18.454Z,5.2
2018-05-13T12:52:18.406Z,4.4
2018-05-13T12:55:18.307Z,4
2018-05-13T12:58:19.165Z,4
2018-05-13T13:01:18.475Z,4.2
2018-05-13T13:04:18.667Z,3.7
2018-05-13T13:07:18.602Z,4.2
2018-05-13T13:10:18.418Z,4.3
2018-05-13T13:13:18.576Z,4.3
2018-05-13T13:16:18.337Z,3.9
2018-05-13T13:19:18.512Z,3.8
2018-05-13T13:22:18.595Z,4
2018-05-13T13:25:18.572Z,3.6
2018-05-13T13:28:18.525Z,3.7
2018-05-13T13:31:18.398Z,3.8
2018-05-13T13:34:18.332Z,3.6
2018-05-13T13:37:18.542Z,4.4
2018-05-13T13:40:18.266Z,3.8
2018-05-13T13:43:18.235Z,3.3
2018-05-13T13:46:18.336Z,3.6
2018-05-13T13:49:18.429Z,3.4
2018-05-13T13:52:18.457Z,3.2
2018-05-13T13:55:18.502Z,3.3
2018-05-13T13:58:18.475Z,3.3
2018-05-13T14:01:18.627Z,3.1
2018-05-13T14:04:18.436Z,2.9
2018-05-13T14:07:18.500Z,3.7
2018-05-13T14:10:18.302Z,3.5
2018-05-13T14:13:18.399Z,3.9
2018-05-13T14:16:18.332Z,3.3
2018-05-13T14:19:18.549Z,3.3
2018-05-13T14:22:18.294Z,3
2018-05-13T14:25:18.473Z,3.7
2018-05-13T14:28:18.491Z,4.6
2018-05-13T14:31:18.247Z,4.2
2018-05-13T14:34:18.317Z,5
2018-05-13T14:37:18.320Z,5.4
2018-05-13T14:40:18.493Z,4.3
2018-05-13T14:43:18.414Z,4.3
2018-05-13T14:46:18.272Z,4.9
2018-05-13T14:49:18.222Z,4.6
2018-05-13T14:52:18.384Z,4.3
2018-05-13T14:55:18.467Z,3.7
2018-05-13T15:01:08.525Z,5.7
2018-05-13T15:04:08.718Z,10
2018-05-13T15:07:08.491Z,8.5
2018-05-13T15:10:08.417Z,8.2
2018-05-13T15:13:08.472Z,7.3
2018-05-13T15:16:08.430Z,7.2
2018-05-13T15:19:08.485Z,7.3
2018-05-13T15:23:55.203Z,8.5
2018-05-13T15:26:55.098Z,7.1
2018-05-13T15:29:55.071Z,6.2
2018-05-13T15:32:55.245Z,10.5
2018-05-13T15:35:55.248Z,10.1
2018-05-13T15:38:55.139Z,10.2
2018-05-13T15:41:55.051Z,11.8
2018-05-13T15:44:55.231Z,10.3
2018-05-13T15:47:54.971Z,10.1
2018-05-13T15:50:55.042Z,11.8
2018-05-13T15:53:55.043Z,10.2
2018-05-13T15:56:55.415Z,9.8
2018-05-13T15:59:55.209Z,9.9
2018-05-13T16:02:55.216Z,10.7
2018-05-13T16:05:55.154Z,10.4
2018-05-13T16:08:55.284Z,10.4
2018-05-13T16:11:55.352Z,9.7
2018-05-13T16:14:55.308Z,9.3
2018-05-13T16:17:55.265Z,8.7
2018-05-13T16:20:55.350Z,8.3
2018-05-13T16:23:55.288Z,8.2
2018-05-13T16:26:55.363Z,8.4
2018-05-13T16:29:55.462Z,9.4
2018-05-13T16:32:55.389Z,9.3
2018-05-13T16:35:55.414Z,10.2
2018-05-13T16:38:55.312Z,9.8
2018-05-13T16:41:55.402Z,8.8
2018-05-13T16:44:55.337Z,8.2
2018-05-13T16:47:55.436Z,6.8
2018-05-13T16:50:55.017Z,7.6
2018-05-13T16:53:55.082Z,11.9
2018-05-13T16:56:55.480Z,11.3
2018-05-13T16:59:55.488Z,11
2018-05-13T17:02:55.510Z,9.5
2018-05-13T17:05:55.508Z,9.6
2018-05-13T17:08:55.013Z,7.2
2018-05-13T17:11:55.074Z,7.7
2018-05-13T17:14:55.232Z,8
2018-05-13T17:17:54.989Z,7.6
2018-05-13T17:20:55.190Z,6.9
2018-05-13T17:23:55.094Z,6.8
2018-05-13T17:26:55.177Z,8.9
2018-05-13T17:29:56.754Z,9.7
2018-05-13T17:32:55.085Z,9.5
2018-05-13T17:39:20.221Z,8.1
2018-05-13T17:42:19.763Z,8.6
2018-05-13T17:45:19.759Z,8.2
2018-05-13T17:48:19.336Z,7.2
2018-05-13T17:51:19.356Z,6.1
2018-05-13T17:54:19.305Z,7
2018-05-13T17:57:20.602Z,6.3
2018-05-13T18:00:19.380Z,6.7
2018-05-13T18:03:21.443Z,7.3
2018-05-13T18:06:19.384Z,7.9
2018-05-13T18:09:19.258Z,7.2
2018-05-13T18:12:19.490Z,7
2018-05-13T18:15:19.319Z,7.1
2018-05-13T18:18:19.930Z,5.8
2018-05-13T18:21:19.425Z,6
2018-05-13T18:24:19.520Z,5.8
2018-05-13T18:27:19.332Z,7.4
2018-05-13T18:30:19.470Z,7.6
2018-05-13T18:33:19.482Z,6.2
2018-05-13T18:36:19.510Z,5.7
2018-05-13T18:39:20.304Z,4.9
2018-05-13T18:42:19.263Z,4.2
2018-05-13T18:45:19.418Z,4.9
2018-05-13T18:48:19.532Z,4.6
2018-05-13T18:51:19.345Z,4.4
2018-05-13T18:54:19.486Z,4.8
2018-05-13T18:57:19.515Z,4.7
2018-05-13T19:00:19.446Z,5.3
2018-05-13T19:03:19.394Z,4.9
2018-05-13T19:06:19.355Z,5.7
2018-05-13T19:09:19.342Z,4.8
2018-05-13T19:12:20.467Z,4.8
2018-05-13T19:15:19.426Z,4.8
2018-05-13T19:18:19.451Z,5
2018-05-13T19:21:19.494Z,4.6
2018-05-13T19:24:19.626Z,4.6
2018-05-13T19:27:19.459Z,4.7
2018-05-13T19:30:19.531Z,4.4
2018-05-13T19:33:19.635Z,5.4
2018-05-13T19:36:19.567Z,5.3
2018-05-13T19:39:19.568Z,4.6
2018-05-13T19:42:19.602Z,4.7
2018-05-13T19:45:19.410Z,6.5
2018-05-13T19:48:19.305Z,7.8
2018-05-13T19:51:19.354Z,10.3
2018-05-13T19:54:19.281Z,10.2
2018-05-13T19:57:19.474Z,7.9
2018-05-13T20:00:19.623Z,6.3
2018-05-13T20:03:22.488Z,6.6
2018-05-13T20:06:19.279Z,6.6
2018-05-13T20:09:20.267Z,6.6
2018-05-13T20:12:19.614Z,5.3
2018-05-13T20:15:19.312Z,4.6
2018-05-13T20:18:19.390Z,6.3
2018-05-13T20:21:19.456Z,6.2
2018-05-13T20:24:19.562Z,5.7
2018-05-13T20:27:19.347Z,4.9
2018-05-13T20:30:19.509Z,4.5
2018-05-13T20:33:19.976Z,4.8
2018-05-13T20:36:19.211Z,4.7
2018-05-13T20:39:19.392Z,5.2
2018-05-13T20:42:19.467Z,5.9
2018-05-13T20:45:19.341Z,5
2018-05-13T20:48:19.348Z,5.3
2018-05-13T20:51:20.644Z,5.3
2018-05-13T20:54:19.544Z,5.6
2018-05-13T20:57:19.301Z,5.1
2018-05-13T21:00:19.619Z,4.9
2018-05-13T21:03:19.555Z,4.1
2018-05-13T21:06:19.592Z,4.3
2018-05-13T21:09:19.637Z,4.7
2018-05-13T21:12:19.424Z,5.4
2018-05-13T21:15:43.364Z,4.2
2018-05-13T21:18:19.466Z,5.2
2018-05-13T21:21:19.408Z,4.8
2018-05-13T21:24:19.351Z,4.7
2018-05-13T21:27:19.493Z,4.4
2018-05-13T21:30:20.247Z,4.1
2018-05-13T21:33:19.504Z,3.6
2018-05-13T21:36:19.361Z,3.8
2018-05-13T21:39:19.503Z,3.6
2018-05-13T21:42:19.460Z,3.9
2018-05-13T21:45:19.289Z,3.4
2018-05-13T21:48:19.408Z,3.2
2018-05-13T21:51:19.357Z,3
2018-05-13T21:54:19.426Z,3.5
2018-05-13T21:57:19.355Z,4.1
2018-05-13T22:00:19.465Z,3.7
2018-05-13T22:03:19.402Z,3.6
2018-05-13T22:06:19.357Z,3.5
2018-05-13T22:09:19.287Z,3.5
2018-05-13T22:12:19.459Z,3.3
2018-05-13T22:15:19.491Z,3.4
2018-05-13T22:18:19.409Z,3.4
2018-05-13T22:21:19.238Z,3.2
2018-05-13T22:24:19.426Z,2.9
2018-05-13T22:27:19.295Z,3.4
2018-05-13T22:30:19.388Z,3.5
2018-05-13T22:33:19.401Z,3.1
2018-05-13T22:36:19.566Z,3.2
2018-05-13T22:39:19.193Z,3.3
2018-05-13T22:42:19.177Z,3.4
2018-05-13T22:45:19.398Z,3.1
2018-05-13T22:48:19.795Z,3
2018-05-13T22:51:19.446Z,2.9
2018-05-13T22:54:19.533Z,2.7
2018-05-13T22:57:19.561Z,2.6
2018-05-13T23:00:19.518Z,2.9
2018-05-13T23:03:19.342Z,3.6
2018-05-13T23:06:19.310Z,3.2
2018-05-13T23:09:19.412Z,3.4
2018-05-13T23:12:19.309Z,3
2018-05-13T23:15:19.411Z,3.1
2018-05-13T23:18:19.416Z,2.8
2018-05-13T23:21:19.595Z,2.7
2018-05-13T23:24:19.416Z,2.6
2018-05-13T23:27:19.495Z,2.5
2018-05-13T23:30:19.297Z,2.6
2018-05-13T23:33:19.220Z,2.7
2018-05-13T23:36:19.400Z,2.6
2018-05-13T23:39:19.247Z,2.8
2018-05-13T23:42:19.333Z,2.7
2018-05-13T23:45:19.457Z,2.7
2018-05-13T23:48:19.325Z,2.7
2018-05-13T23:51:19.249Z,3
2018-05-13T23:54:19.417Z,3
2018-05-13T23:57:19.424Z,2.7
